Time;durP1;ratioP1;P1;durP2;ratioP2;P2;SDS_P1;SDS_P2;PMS_P1;PMS_P2;Temp;Humidity;BMP_temperature;BMP_pressure;BME280_temperature;BME280_humidity;BME280_pressure;Samples;Min_cycle;Max_cycle;Signal;HPM_P1;HPM_P2
2022/04/23 00:00:49;;;;;;;13.30;8.98;;;13.60;73.50;;;;;;6257140;28;20422;-84
2022/04/23 00:03:50;;;;;;;13.50;8.18;;;13.60;73.60;;;;;;6258292;28;20055;-83
2022/04/23 00:06:52;;;;;;;16.58;8.40;;;13.50;73.70;;;;;;6256595;28;20049;-84
2022/04/23 00:09:54;;;;;;;14.40;8.73;;;13.50;73.90;;;;;;6256062;28;20045;-84
2022/04/23 00:12:57;;;;;;;11.80;8.68;;;13.40;74.20;;;;;;6256245;28;20132;-85
2022/04/23 00:16:00;;;;;;;12.90;9.35;;;13.40;74.30;;;;;;6221224;28;20966;-84
2022/04/23 00:19:02;;;;;;;14.57;8.45;;;13.40;74.60;;;;;;6233739;28;20049;-84
2022/04/23 00:22:04;;;;;;;14.95;8.32;;;13.40;74.90;;;;;;6237588;28;20090;-84
2022/04/23 00:25:07;;;;;;;16.17;9.93;;;13.30;75.00;;;;;;6227689;28;20046;-84
2022/04/23 00:28:10;;;;;;;13.32;8.20;;;13.30;75.20;;;;;;6229380;28;20514;-85
2022/04/23 00:31:13;;;;;;;14.18;8.95;;;13.20;75.50;;;;;;6255255;28;20071;-84
2022/04/23 00:34:15;;;;;;;13.63;8.95;;;13.20;75.60;;;;;;6240873;28;20046;-85
2022/04/23 00:37:17;;;;;;;17.30;9.48;;;13.20;75.80;;;;;;6228384;28;20105;-85
2022/04/23 00:40:20;;;;;;;15.50;8.65;;;13.20;75.80;;;;;;6226435;28;20058;-84
2022/04/23 00:43:28;;;;;;;14.75;8.98;;;13.10;75.80;;;;;;6225546;28;20057;-84
2022/04/23 00:46:30;;;;;;;15.45;9.15;;;13.20;75.90;;;;;;6227198;28;20531;-85
2022/04/23 00:49:33;;;;;;;16.15;9.27;;;13.10;76.00;;;;;;6227909;28;20050;-85
2022/04/23 00:52:35;;;;;;;15.40;10.13;;;13.10;76.10;;;;;;6226639;28;20061;-84
2022/04/23 00:55:38;;;;;;;15.95;9.88;;;13.00;76.20;;;;;;6229196;28;20532;-84
2022/04/23 00:58:41;;;;;;;19.10;10.73;;;13.00;76.40;;;;;;6230154;28;20415;-83
2022/04/23 01:01:43;;;;;;;16.80;10.23;;;12.90;76.60;;;;;;6229666;28;20105;-84
2022/04/23 01:04:46;;;;;;;14.77;10.80;;;12.90;76.80;;;;;;6230910;28;20049;-84
2022/04/23 01:07:48;;;;;;;18.15;10.65;;;12.80;77.00;;;;;;6230145;28;20042;-85
2022/04/23 01:10:50;;;;;;;19.05;11.07;;;12.70;77.20;;;;;;6229836;28;20057;-84
2022/04/23 01:13:53;;;;;;;16.88;9.98;;;12.70;77.50;;;;;;6228773;28;20049;-84
2022/04/23 01:16:55;;;;;;;15.25;9.93;;;12.60;78.00;;;;;;6227178;28;20136;-86
2022/04/23 01:19:56;;;;;;;18.00;10.25;;;12.50;78.30;;;;;;6236653;28;20694;-84
2022/04/23 01:22:59;;;;;;;19.13;11.27;;;12.50;78.60;;;;;;6228332;28;20042;-84
2022/04/23 01:26:04;;;;;;;15.50;10.15;;;12.50;79.00;;;;;;6230253;28;20054;-84
2022/04/23 01:29:05;;;;;;;18.67;11.07;;;12.40;79.20;;;;;;6229474;28;20065;-84
2022/04/23 01:32:08;;;;;;;22.25;11.30;;;12.30;79.50;;;;;;6230151;28;20050;-83
2022/04/23 01:35:10;;;;;;;16.92;10.27;;;12.20;79.80;;;;;;6230146;28;20046;-84
2022/04/23 01:38:13;;;;;;;11.38;8.30;;;12.10;80.10;;;;;;6229239;28;20041;-84
2022/04/23 01:41:15;;;;;;;15.70;10.45;;;12.00;80.70;;;;;;6229312;28;20416;-83
2022/04/23 01:44:17;;;;;;;18.80;10.32;;;12.00;81.00;;;;;;6230228;28;20053;-84
2022/04/23 01:47:19;;;;;;;20.92;12.48;;;11.90;81.20;;;;;;6230181;28;20448;-84
2022/04/23 01:50:21;;;;;;;17.15;11.25;;;11.90;81.60;;;;;;6229978;28;20624;-84
2022/04/23 01:53:25;;;;;;;20.75;11.98;;;11.80;81.70;;;;;;6228600;28;20054;-83
2022/04/23 01:56:27;;;;;;;18.80;10.70;;;11.80;81.90;;;;;;6227931;23;20042;-80
2022/04/23 01:59:29;;;;;;;16.83;11.23;;;11.70;82.40;;;;;;6207598;28;20049;-79
2022/04/23 02:02:31;;;;;;;17.92;11.18;;;11.60;82.60;;;;;;6206933;28;20046;-80
2022/04/23 02:05:33;;;;;;;20.88;11.23;;;11.60;82.80;;;;;;6207697;28;20415;-80
2022/04/23 02:08:36;;;;;;;16.90;11.02;;;11.60;83.00;;;;;;6206773;28;20078;-80
2022/04/23 02:11:38;;;;;;;21.50;12.57;;;11.50;83.60;;;;;;6207438;28;20070;-81
2022/04/23 02:14:40;;;;;;;17.25;11.10;;;11.50;83.90;;;;;;6207871;28;20133;-80
2022/04/23 02:17:43;;;;;;;19.58;11.93;;;11.40;84.10;;;;;;6207815;28;20477;-80
2022/04/23 02:20:45;;;;;;;21.38;11.02;;;11.40;84.50;;;;;;6214914;28;20711;-81
2022/04/23 02:23:48;;;;;;;25.02;13.93;;;11.30;84.50;;;;;;6206828;28;20059;-81
2022/04/23 02:26:50;;;;;;;18.90;12.32;;;11.30;84.80;;;;;;6207260;28;20050;-82
2022/04/23 02:29:52;;;;;;;18.88;11.63;;;11.20;84.90;;;;;;6207306;28;20434;-80
2022/04/23 02:32:53;;;;;;;18.45;11.15;;;11.30;85.20;;;;;;6208702;28;20552;-79
2022/04/23 02:35:55;;;;;;;23.30;12.25;;;11.10;85.40;;;;;;6207563;28;20042;-81
2022/04/23 02:38:59;;;;;;;18.92;11.52;;;11.20;85.70;;;;;;6208144;28;20102;-81
2022/04/23 02:42:01;;;;;;;18.15;11.02;;;11.20;86.00;;;;;;6205797;28;20101;-79
2022/04/23 02:45:03;;;;;;;25.50;14.13;;;11.10;86.20;;;;;;6205981;28;20092;-81
2022/04/23 02:48:06;;;;;;;22.98;13.52;;;11.10;86.30;;;;;;6204972;28;20526;-81
2022/04/23 02:51:07;;;;;;;19.50;12.15;;;11.10;86.40;;;;;;6205963;28;20057;-80
2022/04/23 02:54:12;;;;;;;20.67;12.90;;;11.10;86.50;;;;;;6205189;28;20128;-78
2022/04/23 02:57:14;;;;;;;18.00;11.70;;;11.10;86.80;;;;;;6205042;28;20050;-81
2022/04/23 03:00:17;;;;;;;19.30;12.40;;;10.90;86.70;;;;;;6205579;28;20161;-81
2022/04/23 03:03:18;;;;;;;19.00;12.23;;;11.00;86.80;;;;;;6205595;28;20066;-80
2022/04/23 03:06:20;;;;;;;22.42;13.10;;;11.00;87.20;;;;;;6204769;28;20053;-79
2022/04/23 03:09:23;;;;;;;18.13;11.77;;;11.00;87.20;;;;;;6203763;28;20463;-81
2022/04/23 03:12:25;;;;;;;21.23;11.93;;;10.90;87.20;;;;;;6204854;28;20427;-80
2022/04/23 03:15:27;;;;;;;20.10;12.73;;;10.90;87.60;;;;;;6203781;28;20133;-81
2022/04/23 03:18:29;;;;;;;20.48;12.70;;;10.90;88.00;;;;;;6204653;28;20109;-80
2022/04/23 03:21:31;;;;;;;23.52;12.93;;;10.80;87.80;;;;;;6208215;28;20046;-79
2022/04/23 03:24:34;;;;;;;25.67;14.38;;;10.80;87.90;;;;;;6226718;28;20045;-81
2022/04/23 03:27:36;;;;;;;19.67;12.27;;;10.80;87.80;;;;;;6228326;28;20427;-78
2022/04/23 03:30:38;;;;;;;18.77;12.52;;;10.80;88.10;;;;;;6228340;28;20046;-80
2022/04/23 03:33:40;;;;;;;23.70;12.77;;;10.80;88.20;;;;;;6233326;28;20056;-78
2022/04/23 03:36:42;;;;;;;25.05;13.15;;;10.70;88.20;;;;;;6231913;28;20104;-81
2022/04/23 03:39:45;;;;;;;21.58;13.05;;;10.60;88.40;;;;;;6230091;28;20042;-81
2022/04/23 03:42:48;;;;;;;24.55;13.70;;;10.70;88.30;;;;;;6230690;28;20524;-78
2022/04/23 03:45:50;;;;;;;19.52;12.85;;;10.70;88.90;;;;;;6230074;28;20046;-81
2022/04/23 03:48:52;;;;;;;20.98;12.32;;;10.70;88.70;;;;;;6230845;28;20137;-81
2022/04/23 03:51:54;;;;;;;18.30;11.70;;;10.60;89.10;;;;;;6230034;28;20056;-82
2022/04/23 03:54:57;;;;;;;18.52;12.32;;;10.70;89.90;;;;;;6229696;28;20403;-82
2022/04/23 03:57:59;;;;;;;23.15;12.45;;;10.60;89.70;;;;;;6229414;28;20037;-80
2022/04/23 04:01:01;;;;;;;20.65;12.43;;;10.60;90.00;;;;;;6229551;28;20050;-82
2022/04/23 04:04:03;;;;;;;21.23;12.07;;;10.50;90.10;;;;;;6228510;28;20056;-82
2022/04/23 04:07:05;;;;;;;18.02;12.10;;;10.50;90.20;;;;;;6229217;28;20123;-82
2022/04/23 04:10:10;;;;;;;17.80;10.50;;;10.50;90.20;;;;;;6229113;28;20073;-82
2022/04/23 04:13:13;;;;;;;18.00;11.48;;;10.50;90.30;;;;;;6228963;28;20058;-82
2022/04/23 04:16:16;;;;;;;19.92;12.93;;;10.50;90.30;;;;;;6229548;28;20049;-82
2022/04/23 04:19:18;;;;;;;19.13;11.57;;;10.50;90.50;;;;;;6228136;28;20069;-83
2022/04/23 04:22:22;;;;;;;17.95;10.57;;;10.50;90.60;;;;;;6215710;28;20511;-82
2022/04/23 04:25:25;;;;;;;17.08;10.95;;;10.50;90.60;;;;;;6227287;28;20050;-81
2022/04/23 04:28:27;;;;;;;21.63;12.05;;;10.50;90.60;;;;;;6228073;28;20053;-80
2022/04/23 04:34:48;;;;;;;18.50;10.93;;;10.60;90.70;;;;;;6227464;28;20038;-81
2022/04/23 04:37:49;;;;;;;22.17;12.13;;;10.60;90.70;;;;;;6227881;28;20057;-81
2022/04/23 04:40:53;;;;;;;20.55;12.02;;;10.60;90.70;;;;;;6227775;28;20518;-82
2022/04/23 04:43:54;;;;;;;20.02;12.88;;;10.60;90.70;;;;;;6227764;28;20052;-82
2022/04/23 04:46:56;;;;;;;18.45;10.27;;;10.70;90.70;;;;;;6227334;28;20128;-82
2022/04/23 04:49:58;;;;;;;19.02;11.75;;;10.80;90.60;;;;;;6226786;28;20044;-81
2022/04/23 04:53:00;;;;;;;16.95;11.45;;;10.80;90.60;;;;;;6228474;28;20060;-81
2022/04/23 04:56:05;;;;;;;13.85;9.15;;;10.90;90.50;;;;;;6227044;28;20075;-81
2022/04/23 04:59:07;;;;;;;19.73;11.75;;;11.00;90.50;;;;;;6228099;28;20599;-83
2022/04/23 05:02:08;;;;;;;21.25;11.38;;;11.10;90.30;;;;;;6228279;28;20419;-82
2022/04/23 05:05:10;;;;;;;15.45;9.68;;;11.20;90.20;;;;;;6228861;28;20132;-83
2022/04/23 05:08:12;;;;;;;21.45;10.52;;;11.40;90.00;;;;;;6227536;28;20054;-81
2022/04/23 05:11:15;;;;;;;13.93;9.35;;;11.40;89.80;;;;;;6228815;28;20085;-84
2022/04/23 05:14:18;;;;;;;15.95;9.65;;;11.70;89.50;;;;;;6228631;28;20438;-83
2022/04/23 05:17:19;;;;;;;17.25;10.45;;;11.90;88.90;;;;;;6228595;28;20428;-82
2022/04/23 05:20:21;;;;;;;15.93;9.60;;;12.00;88.00;;;;;;6228976;28;20073;-82
2022/04/23 05:23:23;;;;;;;16.73;10.30;;;12.10;87.80;;;;;;6221657;28;20519;-82
2022/04/23 05:26:26;;;;;;;12.60;8.25;;;12.20;87.20;;;;;;6206189;28;20046;-83
2022/04/23 05:29:28;;;;;;;16.13;9.30;;;12.40;87.10;;;;;;6204831;28;20050;-82
2022/04/23 05:32:29;;;;;;;12.85;8.32;;;12.60;86.30;;;;;;6209014;28;20046;-83
2022/04/23 05:35:34;;;;;;;15.70;8.57;;;12.90;85.30;;;;;;6209490;28;20053;-82
2022/04/23 05:38:36;;;;;;;10.23;6.80;;;13.20;84.70;;;;;;6210321;28;20083;-82
2022/04/23 05:41:39;;;;;;;11.60;6.82;;;13.30;83.50;;;;;;6211377;28;20050;-81
2022/04/23 05:44:41;;;;;;;9.40;6.82;;;13.50;83.50;;;;;;6210960;28;20058;-83
2022/04/23 05:47:43;;;;;;;10.45;7.13;;;13.70;82.00;;;;;;6210508;28;20066;-82
2022/04/23 05:50:44;;;;;;;11.52;6.32;;;13.70;82.10;;;;;;6218734;28;20046;-81
2022/04/23 05:53:46;;;;;;;12.55;6.68;;;13.60;81.60;;;;;;6206793;28;20046;-83
2022/04/23 05:56:49;;;;;;;9.38;6.75;;;13.60;81.50;;;;;;6206883;28;20073;-80
2022/04/23 05:59:51;;;;;;;8.88;6.32;;;13.70;81.10;;;;;;6206312;28;20150;-82
2022/04/23 06:02:53;;;;;;;7.75;5.00;;;13.90;80.80;;;;;;6205126;28;20492;-80
2022/04/23 06:05:55;;;;;;;8.90;6.00;;;14.10;80.00;;;;;;6205400;28;20499;-80
2022/04/23 06:08:56;;;;;;;8.80;7.35;;;14.20;79.40;;;;;;6204998;28;20054;-80
2022/04/23 06:12:00;;;;;;;7.22;5.28;;;14.50;78.60;;;;;;6207067;28;20133;-82
2022/04/23 06:15:01;;;;;;;8.57;6.28;;;15.10;76.80;;;;;;6206624;28;20068;-81
2022/04/23 06:18:03;;;;;;;10.77;6.10;;;15.70;75.00;;;;;;6206019;28;20070;-82
2022/04/23 06:21:05;;;;;;;7.55;5.80;;;16.10;73.10;;;;;;6207779;28;20047;-80
2022/04/23 06:24:07;;;;;;;8.55;5.38;;;16.50;72.10;;;;;;6212132;28;20046;-81
2022/04/23 06:27:10;;;;;;;7.80;5.60;;;16.60;70.50;;;;;;6225238;28;20053;-83
2022/04/23 06:30:12;;;;;;;9.90;5.75;;;16.60;70.80;;;;;;6230447;28;20179;-83
2022/04/23 06:33:15;;;;;;;8.43;5.80;;;16.40;70.90;;;;;;6230290;28;20133;-82
2022/04/23 06:36:17;;;;;;;9.50;5.75;;;16.20;71.50;;;;;;6231095;28;20068;-83
2022/04/23 06:39:19;;;;;;;11.23;5.90;;;16.40;71.20;;;;;;6229922;28;20101;-81
2022/04/23 06:42:22;;;;;;;7.93;6.80;;;16.50;70.80;;;;;;6229763;28;20057;-82
2022/04/23 06:45:24;;;;;;;7.55;5.47;;;16.20;71.40;;;;;;6228804;28;20451;-81
2022/04/23 06:48:25;;;;;;;9.75;6.18;;;16.20;71.80;;;;;;6230417;28;20050;-82
2022/04/23 06:51:27;;;;;;;6.28;5.30;;;16.60;70.90;;;;;;6230557;28;20050;-82
2022/04/23 06:54:29;;;;;;;7.95;4.60;;;16.80;70.10;;;;;;6230169;28;20069;-83
2022/04/23 06:57:32;;;;;;;6.22;5.13;;;17.10;68.70;;;;;;6230986;28;20208;-82
2022/04/23 07:00:34;;;;;;;10.10;6.25;;;16.70;68.90;;;;;;6230663;28;20056;-82
2022/04/23 07:03:36;;;;;;;8.13;5.70;;;16.50;70.00;;;;;;6234136;28;20053;-82
2022/04/23 07:06:38;;;;;;;8.57;6.13;;;16.70;70.30;;;;;;6235834;28;20073;-83
2022/04/23 07:09:40;;;;;;;7.47;5.53;;;17.10;69.00;;;;;;6231380;28;20066;-83
2022/04/23 07:12:43;;;;;;;7.05;5.45;;;17.40;67.60;;;;;;6231947;28;20060;-83
2022/04/23 07:15:46;;;;;;;7.15;5.05;;;17.70;67.50;;;;;;6230712;28;20068;-82
2022/04/23 07:18:48;;;;;;;8.20;4.15;;;18.20;65.60;;;;;;6229361;28;20053;-80
2022/04/23 07:21:49;;;;;;;7.00;5.28;;;18.00;65.00;;;;;;6230342;28;20050;-84
2022/04/23 07:24:51;;;;;;;7.53;5.90;;;18.40;65.10;;;;;;6221549;28;20129;-83
2022/04/23 07:27:54;;;;;;;9.07;5.70;;;19.80;61.30;;;;;;6228066;28;20050;-84
2022/04/23 07:30:56;;;;;;;7.22;5.30;;;20.50;59.30;;;;;;6229509;28;20127;-80
2022/04/23 07:37:30;;;;;;;7.47;5.60;;;20.50;56.90;;;;;;6230262;28;20053;-82
2022/04/23 07:40:32;;;;;;;6.75;5.13;;;19.90;58.90;;;;;;6229809;28;20132;-81
2022/04/23 07:43:35;;;;;;;13.00;5.43;;;19.80;59.00;;;;;;6227421;28;20155;-82
2022/04/23 07:46:37;;;;;;;7.13;4.82;;;19.90;59.60;;;;;;6230277;28;20042;-82
2022/04/23 07:49:39;;;;;;;6.55;4.97;;;19.80;58.50;;;;;;6228172;28;20503;-81
2022/04/23 07:52:41;;;;;;;7.80;5.45;;;19.50;59.60;;;;;;6227289;28;20465;-80
2022/04/23 07:55:43;;;;;;;8.77;5.75;;;19.60;59.60;;;;;;6211017;28;20056;-78
2022/04/23 07:58:46;;;;;;;9.82;6.28;;;20.10;58.50;;;;;;6205033;28;20046;-81
2022/04/23 08:01:49;;;;;;;7.35;5.57;;;20.10;57.60;;;;;;6203691;28;20416;-82
2022/04/23 08:04:50;;;;;;;7.85;5.68;;;20.10;58.10;;;;;;6206519;28;20081;-80
2022/04/23 08:07:52;;;;;;;6.57;5.03;;;20.20;57.70;;;;;;6210764;28;20075;-81
2022/04/23 08:10:54;;;;;;;7.22;4.90;;;19.90;57.60;;;;;;6209009;28;20046;-81
2022/04/23 08:13:57;;;;;;;7.18;5.05;;;19.60;58.70;;;;;;6207695;28;20160;-81
2022/04/23 08:17:00;;;;;;;9.40;5.78;;;19.50;59.20;;;;;;6207344;28;20104;-82
2022/04/23 08:20:03;;;;;;;7.60;5.30;;;19.50;58.40;;;;;;6206309;28;20046;-81
2022/04/23 08:23:05;;;;;;;6.00;4.95;;;19.20;58.80;;;;;;6204766;28;20069;-79
2022/04/23 08:26:07;;;;;;;6.55;4.90;;;19.00;59.80;;;;;;6208995;28;20046;-80
2022/04/23 08:32:34;;;;;;;5.63;4.30;;;18.80;60.00;;;;;;6129659;28;20054;-81
2022/04/23 08:35:38;;;;;;;8.45;4.20;;;19.00;60.70;;;;;;6210139;28;20117;-80
2022/04/23 08:38:40;;;;;;;6.60;3.72;;;19.40;59.40;;;;;;6210087;28;20129;-80
2022/04/23 08:41:45;;;;;;;5.22;4.10;;;19.50;58.60;;;;;;6203064;28;20061;-79
2022/04/23 08:44:48;;;;;;;5.30;3.85;;;19.40;58.40;;;;;;6204205;28;20056;-81
2022/04/23 08:47:52;;;;;;;4.90;3.38;;;19.10;59.10;;;;;;6206820;28;20042;-81
2022/04/23 08:50:58;;;;;;;4.22;3.30;;;19.30;59.60;;;;;;6205385;28;20074;-82
2022/04/23 08:54:04;;;;;;;4.63;2.50;;;19.70;58.30;;;;;;6207364;28;20133;-81
2022/04/23 08:57:06;;;;;;;2.80;2.17;;;20.10;57.20;;;;;;6207575;28;20073;-81
2022/04/23 09:00:10;;;;;;;6.75;3.65;;;19.70;57.10;;;;;;6204704;28;20124;-80
2022/04/23 09:03:15;;;;;;;4.13;2.95;;;19.60;57.50;;;;;;6205613;28;20106;-78
2022/04/23 09:06:17;;;;;;;4.75;3.08;;;19.70;57.90;;;;;;6204824;28;20125;-80
2022/04/23 09:09:20;;;;;;;4.40;3.03;;;19.70;57.40;;;;;;6202925;28;20054;-78
2022/04/23 09:12:24;;;;;;;3.42;2.45;;;19.50;57.80;;;;;;6205199;28;20050;-79
2022/04/23 09:25:31;;;;;;;3.33;2.00;;;20.50;56.90;;;;;;6205808;28;20077;-81
2022/04/23 09:28:34;;;;;;;3.45;2.88;;;21.20;54.90;;;;;;6209482;28;20054;-82
2022/04/23 09:31:37;;;;;;;5.15;2.22;;;21.10;53.30;;;;;;6205579;28;20060;-81
2022/04/23 09:34:39;;;;;;;4.85;2.75;;;20.90;54.10;;;;;;6205701;28;20054;-80
2022/04/23 09:41:15;;;;;;;;;;;20.80;54.30;;;;;;6190253;28;20385;-81
2022/04/23 09:44:17;;;;;;;2.80;2.00;;;20.70;55.00;;;;;;6199920;28;19922;-79
2022/04/23 09:47:31;;;;;;;2.95;1.80;;;20.70;54.00;;;;;;6200600;28;20056;-81
2022/04/23 09:50:37;;;;;;;2.58;2.05;;;20.50;54.50;;;;;;6201325;28;20046;-80
2022/04/23 09:53:39;;;;;;;3.75;2.83;;;20.20;54.90;;;;;;6203182;28;20050;-80
2022/04/23 09:56:41;;;;;;;3.03;1.70;;;20.10;55.60;;;;;;6202968;28;20054;-81
2022/04/23 09:59:43;;;;;;;2.67;1.98;;;20.00;55.80;;;;;;6200609;28;20087;-81
2022/04/23 10:02:48;;;;;;;3.13;2.03;;;19.70;55.90;;;;;;6202456;28;20423;-81
2022/04/23 10:05:50;;;;;;;3.28;1.67;;;19.70;56.50;;;;;;6197978;28;20077;-81
2022/04/23 10:08:55;;;;;;;2.63;1.77;;;20.10;56.00;;;;;;6178868;28;20058;-79
2022/04/23 10:12:04;;;;;;;3.28;2.38;;;20.30;54.50;;;;;;6190059;28;20046;-81
2022/04/23 10:15:07;;;;;;;4.18;2.40;;;20.20;55.40;;;;;;6202711;28;20046;-80
2022/04/23 10:18:10;;;;;;;2.40;1.85;;;20.20;54.70;;;;;;6206631;28;20062;-81
2022/04/23 10:21:18;;;;;;;6.03;1.70;;;20.10;55.20;;;;;;6206934;28;20050;-81
2022/04/23 10:24:24;;;;;;;2.58;1.13;;;20.20;55.00;;;;;;6207769;28;20576;-79
2022/04/23 10:27:26;;;;;;;2.60;2.00;;;20.10;54.90;;;;;;6207597;28;20042;-81
2022/04/23 10:30:29;;;;;;;2.78;1.65;;;19.80;54.70;;;;;;6223852;28;20124;-80
2022/04/23 10:33:32;;;;;;;2.70;1.90;;;19.80;55.10;;;;;;6228844;28;20046;-81
2022/04/23 10:36:33;;;;;;;2.80;1.75;;;20.00;54.40;;;;;;6231290;28;20064;-82
2022/04/23 10:39:35;;;;;;;2.42;1.85;;;20.00;54.40;;;;;;6231797;28;20068;-80
2022/04/23 10:42:38;;;;;;;2.17;1.63;;;20.30;54.40;;;;;;6232426;28;20052;-80
2022/04/23 10:45:41;;;;;;;4.07;1.88;;;20.30;53.60;;;;;;6230359;28;20046;-81
2022/04/23 10:48:46;;;;;;;2.33;1.38;;;20.20;53.80;;;;;;6230472;28;20123;-82
2022/04/23 10:51:50;;;;;;;4.35;2.20;;;20.30;53.60;;;;;;6229220;28;20415;-82
2022/04/23 10:54:57;;;;;;;4.40;1.60;;;20.40;53.60;;;;;;6228938;28;20150;-82
2022/04/23 10:58:21;;;;;;;14.47;2.40;;;20.80;52.80;;;;;;6205971;28;20093;-81
2022/04/23 11:01:25;;;;;;;4.47;1.95;;;20.60;52.80;;;;;;6206518;28;20086;-82
2022/04/23 11:04:28;;;;;;;3.85;2.08;;;20.70;53.00;;;;;;6207008;28;20057;-84
2022/04/23 11:14:45;;;;;;;3.60;2.15;;;20.50;53.30;;;;;;6206453;28;20125;-84
2022/04/23 11:17:55;;;;;;;3.80;1.98;;;20.50;53.30;;;;;;6206847;28;20140;-83
2022/04/23 11:21:12;;;;;;;2.25;1.70;;;20.50;53.00;;;;;;6206429;28;20074;-82
2022/04/23 11:24:16;;;;;;;3.90;1.73;;;20.20;52.90;;;;;;6206288;28;20046;-80
2022/04/23 11:27:25;;;;;;;3.53;1.63;;;20.00;54.10;;;;;;6205607;28;20105;-81
2022/04/23 11:30:30;;;;;;;2.40;1.60;;;20.10;54.60;;;;;;6217071;28;20111;-80
2022/04/23 11:33:31;;;;;;;3.58;2.10;;;20.40;53.00;;;;;;6228821;28;20050;-80
2022/04/23 11:36:37;;;;;;;3.33;2.20;;;20.30;53.90;;;;;;6232150;28;20053;-81
2022/04/23 11:39:39;;;;;;;2.63;1.55;;;20.40;53.10;;;;;;6229953;28;20064;-81
2022/04/23 11:42:42;;;;;;;4.05;1.73;;;20.60;53.20;;;;;;6230477;28;20053;-79
2022/04/23 11:45:47;;;;;;;1.52;1.13;;;20.90;53.00;;;;;;6230324;28;20172;-81
2022/04/23 11:48:51;;;;;;;3.25;1.92;;;21.10;51.60;;;;;;6229954;28;20184;-82
2022/04/23 11:51:59;;;;;;;2.47;1.88;;;20.80;51.90;;;;;;6230694;28;20423;-80
2022/04/23 11:55:01;;;;;;;5.32;2.10;;;20.80;51.10;;;;;;6227013;28;20120;-81
2022/04/23 11:58:05;;;;;;;3.08;1.73;;;20.70;51.60;;;;;;6210313;28;20053;-81
2022/04/23 12:01:07;;;;;;;2.90;1.45;;;21.00;52.20;;;;;;6208101;28;20050;-81
2022/04/23 12:04:09;;;;;;;2.03;1.55;;;21.10;51.00;;;;;;6207277;28;20057;-81
2022/04/23 12:07:12;;;;;;;2.75;1.58;;;21.20;50.90;;;;;;6207296;28;20518;-83
2022/04/23 12:10:14;;;;;;;3.50;1.80;;;21.30;51.10;;;;;;6209861;28;20070;-82
2022/04/23 12:13:18;;;;;;;2.35;1.38;;;21.50;50.30;;;;;;6210197;28;20066;-82
2022/04/23 12:16:34;;;;;;;2.30;1.10;;;21.20;50.00;;;;;;6209705;28;20129;-81
2022/04/23 12:19:36;;;;;;;1.98;1.55;;;21.10;51.80;;;;;;6206500;28;20050;-78
2022/04/23 12:22:41;;;;;;;1.63;1.10;;;21.50;50.00;;;;;;6208099;28;20042;-80
2022/04/23 12:25:43;;;;;;;2.80;1.50;;;21.50;49.50;;;;;;6201962;28;20050;-79
2022/04/23 12:42:12;;;;;;;2.95;1.85;;;21.60;48.90;;;;;;6227417;28;20528;-79
2022/04/23 12:45:21;;;;;;;2.65;1.70;;;21.50;49.00;;;;;;6228425;28;20068;-80
2022/04/23 12:48:23;;;;;;;2.13;1.38;;;21.30;49.00;;;;;;6231228;28;20065;-81
2022/04/23 12:51:25;;;;;;;2.38;1.17;;;21.30;50.00;;;;;;6229395;28;20087;-80
2022/04/23 12:54:28;;;;;;;1.95;1.20;;;21.80;50.10;;;;;;6228037;28;20049;-80
2022/04/23 12:57:30;;;;;;;3.13;1.70;;;22.30;48.10;;;;;;6204909;28;20046;-81
2022/04/23 13:00:34;;;;;;;2.22;1.50;;;22.30;47.10;;;;;;6204642;28;20072;-82
2022/04/23 13:03:37;;;;;;;3.35;1.80;;;22.10;47.50;;;;;;6205525;28;20046;-80
2022/04/23 13:10:00;;;;;;;3.22;1.75;;;21.50;48.30;;;;;;6203223;28;20038;-80
2022/04/23 13:13:02;;;;;;;5.85;2.05;;;21.00;48.80;;;;;;6204207;28;20050;-79
2022/04/23 13:16:04;;;;;;;2.63;1.90;;;20.60;50.30;;;;;;6204262;28;20058;-80
2022/04/23 13:19:06;;;;;;;2.75;1.73;;;20.60;50.10;;;;;;6205459;28;20137;-81
2022/04/23 13:22:07;;;;;;;3.45;2.22;;;20.40;50.40;;;;;;6205454;28;20069;-79
2022/04/23 13:25:13;;;;;;;3.90;1.90;;;20.40;51.30;;;;;;6204266;28;20054;-80
2022/04/23 13:28:15;;;;;;;2.40;1.42;;;20.40;51.80;;;;;;6203853;28;20050;-80
2022/04/23 13:31:17;;;;;;;2.83;1.95;;;20.50;51.80;;;;;;6211637;28;20042;-80
2022/04/23 13:34:19;;;;;;;4.63;1.88;;;20.70;50.80;;;;;;6205394;28;20053;-80
2022/04/23 13:37:20;;;;;;;5.10;2.78;;;20.70;51.00;;;;;;6203482;28;20060;-80
2022/04/23 13:40:24;;;;;;;3.47;2.38;;;20.30;51.40;;;;;;6202575;28;20454;-80
2022/04/23 13:43:26;;;;;;;3.08;2.10;;;20.00;52.30;;;;;;6203819;28;20053;-79
2022/04/23 13:46:28;;;;;;;4.30;2.78;;;19.70;53.10;;;;;;6203364;28;20201;-80
2022/04/23 13:49:30;;;;;;;6.70;2.90;;;19.50;53.40;;;;;;6203548;28;20050;-79
2022/04/23 13:52:32;;;;;;;3.50;2.70;;;19.30;54.20;;;;;;6207396;28;20082;-81
2022/04/23 13:55:35;;;;;;;5.13;2.75;;;19.00;55.10;;;;;;6237729;23;20505;-80
2022/04/23 13:58:37;;;;;;;7.40;3.60;;;18.90;55.60;;;;;;6230691;28;20057;-81
2022/04/23 14:01:39;;;;;;;5.60;2.70;;;18.70;56.30;;;;;;6231322;28;20046;-82
2022/04/23 14:11:21;;;;;;;5.05;3.53;;;17.80;62.70;;;;;;6228699;28;20050;-82
2022/04/23 14:14:23;;;;;;;3.95;2.90;;;17.50;64.80;;;;;;6229468;28;20050;-83
2022/04/23 14:17:24;;;;;;;5.45;3.33;;;17.40;64.70;;;;;;6229590;28;20049;-83
2022/04/23 14:20:26;;;;;;;4.65;2.50;;;17.90;63.10;;;;;;6228648;28;20053;-84
2022/04/23 14:23:28;;;;;;;10.40;3.65;;;18.50;60.60;;;;;;6227076;28;20501;-83
2022/04/23 14:26:31;;;;;;;5.20;3.05;;;18.70;59.40;;;;;;6228810;28;20137;-83
2022/04/23 14:29:33;;;;;;;4.28;3.00;;;19.00;59.20;;;;;;6229153;28;20041;-84
2022/04/23 14:32:35;;;;;;;4.85;2.85;;;19.20;57.70;;;;;;6230899;28;20054;-84
2022/04/23 14:35:37;;;;;;;6.18;3.05;;;19.30;57.00;;;;;;6210338;28;20054;-84
2022/04/23 14:38:39;;;;;;;5.45;3.60;;;19.50;57.50;;;;;;6219135;28;20080;-84
2022/04/23 14:41:52;;;;;;;5.10;3.15;;;19.50;56.30;;;;;;6225992;28;20145;-84
2022/04/23 14:44:54;;;;;;;5.60;2.85;;;19.30;57.20;;;;;;6234249;28;20410;-85
2022/04/23 14:47:56;;;;;;;6.05;2.50;;;19.30;57.10;;;;;;6233785;28;20060;-84
2022/04/23 14:54:17;;;;;;;3.90;3.00;;;19.30;56.90;;;;;;6233053;28;20053;-83
2022/04/23 14:57:20;;;;;;;3.80;2.85;;;19.20;57.40;;;;;;6234239;28;20133;-83
2022/04/23 15:00:22;;;;;;;4.70;3.53;;;19.30;57.20;;;;;;6237346;28;20724;-82
2022/04/23 15:03:24;;;;;;;4.90;2.95;;;19.50;56.60;;;;;;6233311;28;20050;-83
2022/04/23 15:06:26;;;;;;;4.93;3.65;;;19.50;56.70;;;;;;6233301;28;20062;-82
2022/04/23 15:09:28;;;;;;;4.32;3.08;;;19.50;56.60;;;;;;6230204;28;20046;-82
2022/04/23 15:12:32;;;;;;;11.15;3.97;;;19.50;56.10;;;;;;6234778;28;20486;-83
2022/04/23 15:15:34;;;;;;;4.18;2.70;;;19.50;56.70;;;;;;6236636;28;20096;-81
2022/04/23 15:18:36;;;;;;;3.90;2.83;;;19.60;56.60;;;;;;6239865;28;20060;-83
2022/04/23 15:21:39;;;;;;;8.48;3.90;;;19.70;56.40;;;;;;6239508;28;20128;-83
2022/04/23 15:24:41;;;;;;;4.93;3.50;;;19.60;55.90;;;;;;6237920;28;20137;-82
2022/04/23 15:27:44;;;;;;;3.80;2.92;;;19.40;56.80;;;;;;6237930;28;20579;-83
2022/04/23 15:30:46;;;;;;;5.78;3.35;;;19.30;57.20;;;;;;6239931;28;20088;-82
2022/04/23 15:33:48;;;;;;;5.43;3.35;;;19.10;57.20;;;;;;6235228;28;20120;-82
2022/04/23 15:36:50;;;;;;;4.90;3.83;;;19.00;57.80;;;;;;6232459;28;20065;-82
2022/04/23 15:39:52;;;;;;;6.90;4.03;;;18.70;58.50;;;;;;6232113;28;20057;-83
2022/04/23 15:42:56;;;;;;;5.90;4.35;;;18.60;58.90;;;;;;6231823;28;20527;-81
2022/04/23 15:45:59;;;;;;;5.20;3.70;;;18.50;59.40;;;;;;6225115;28;20084;-80
2022/04/23 15:49:00;;;;;;;7.35;3.28;;;18.60;59.80;;;;;;6222026;28;20058;-80
2022/04/23 15:52:02;;;;;;;5.40;3.22;;;18.60;59.30;;;;;;6207869;28;20053;-82
2022/04/23 15:55:05;;;;;;;4.47;3.38;;;18.50;59.40;;;;;;6203251;28;20097;-80
2022/04/23 15:58:08;;;;;;;5.13;3.67;;;18.60;59.20;;;;;;6201971;28;20405;-82
2022/04/23 16:01:10;;;;;;;6.90;3.65;;;18.60;59.20;;;;;;6203238;28;20122;-81
2022/04/23 16:04:12;;;;;;;5.65;3.45;;;18.60;59.50;;;;;;6213507;28;20053;-80
2022/04/23 16:07:14;;;;;;;7.30;3.72;;;18.70;59.80;;;;;;6226549;28;20176;-82
2022/04/23 16:10:15;;;;;;;4.95;3.78;;;18.70;59.10;;;;;;6227313;28;20041;-81
2022/04/23 16:13:19;;;;;;;6.22;4.00;;;18.60;59.60;;;;;;6226758;28;20129;-80
2022/04/23 16:16:21;;;;;;;6.18;3.78;;;18.40;60.00;;;;;;6227883;28;20058;-81
2022/04/23 16:19:22;;;;;;;4.85;3.85;;;18.50;60.20;;;;;;6229688;28;20052;-81
2022/04/23 16:22:24;;;;;;;5.55;3.90;;;18.50;60.10;;;;;;6232702;28;20526;-82
2022/04/23 16:25:27;;;;;;;7.82;6.05;;;18.50;60.00;;;;;;6230398;28;20515;-81
2022/04/23 16:28:30;;;;;;;4.82;3.53;;;18.50;60.20;;;;;;6230917;28;20111;-81
2022/04/23 16:31:33;;;;;;;7.22;5.00;;;18.70;60.00;;;;;;6231625;28;20053;-81
2022/04/23 16:34:36;;;;;;;6.30;4.18;;;18.60;60.10;;;;;;6227208;28;20050;-81
2022/04/23 16:47:37;;;;;;;9.45;4.57;;;18.20;61.00;;;;;;6227245;28;20054;-82
2022/04/23 16:50:40;;;;;;;8.05;5.05;;;18.20;61.40;;;;;;6228052;28;20069;-81